sensor_id;sensor_type;location;lat;lon;timestamp;P1;durP1;ratioP1;P2;durP2;ratioP2
25846;SDS011;13676;50.168;8.568;2022-12-07T00:01:47;22.10;;;13.15;;
25846;SDS011;13676;50.168;8.568;2022-12-07T00:04:13;20.65;;;15.32;;
25846;SDS011;13676;50.168;8.568;2022-12-07T00:06:40;19.98;;;13.90;;
25846;SDS011;13676;50.168;8.568;2022-12-07T00:09:09;25.67;;;17.42;;
25846;SDS011;13676;50.168;8.568;2022-12-07T00:11:36;21.48;;;15.77;;
25846;SDS011;13676;50.168;8.568;2022-12-07T00:14:02;23.88;;;16.20;;
25846;SDS011;13676;50.168;8.568;2022-12-07T00:16:30;20.30;;;15.13;;
25846;SDS011;13676;50.168;8.568;2022-12-07T00:18:57;20.95;;;15.65;;
25846;SDS011;13676;50.168;8.568;2022-12-07T00:21:24;23.60;;;16.52;;
25846;SDS011;13676;50.168;8.568;2022-12-07T00:23:51;22.13;;;15.85;;
25846;SDS011;13676;50.168;8.568;2022-12-07T00:26:25;19.65;;;14.20;;
25846;SDS011;13676;50.168;8.568;2022-12-07T00:28:53;18.77;;;14.73;;
25846;SDS011;13676;50.168;8.568;2022-12-07T00:33:45;26.92;;;16.77;;
25846;SDS011;13676;50.168;8.568;2022-12-07T00:36:12;23.83;;;16.25;;
25846;SDS011;13676;50.168;8.568;2022-12-07T00:38:39;20.88;;;14.88;;
25846;SDS011;13676;50.168;8.568;2022-12-07T00:41:06;19.25;;;14.98;;
25846;SDS011;13676;50.168;8.568;2022-12-07T00:43:34;20.80;;;15.18;;
25846;SDS011;13676;50.168;8.568;2022-12-07T00:46:00;20.15;;;15.40;;
25846;SDS011;13676;50.168;8.568;2022-12-07T00:48:25;20.45;;;14.13;;
25846;SDS011;13676;50.168;8.568;2022-12-07T00:50:51;19.27;;;13.57;;
25846;SDS011;13676;50.168;8.568;2022-12-07T00:53:16;16.73;;;13.10;;
25846;SDS011;13676;50.168;8.568;2022-12-07T00:55:43;15.88;;;13.02;;
25846;SDS011;13676;50.168;8.568;2022-12-07T00:58:09;16.90;;;12.80;;
25846;SDS011;13676;50.168;8.568;2022-12-07T01:00:35;18.40;;;13.45;;
25846;SDS011;13676;50.168;8.568;2022-12-07T01:03:01;18.00;;;13.15;;
25846;SDS011;13676;50.168;8.568;2022-12-07T01:05:27;21.63;;;13.20;;
25846;SDS011;13676;50.168;8.568;2022-12-07T01:07:52;19.67;;;13.38;;
25846;SDS011;13676;50.168;8.568;2022-12-07T01:10:17;18.33;;;14.07;;
25846;SDS011;13676;50.168;8.568;2022-12-07T01:12:43;18.65;;;13.05;;
25846;SDS011;13676;50.168;8.568;2022-12-07T01:15:08;19.33;;;14.40;;
25846;SDS011;13676;50.168;8.568;2022-12-07T01:17:34;21.00;;;15.65;;
25846;SDS011;13676;50.168;8.568;2022-12-07T01:19:59;17.65;;;13.25;;
25846;SDS011;13676;50.168;8.568;2022-12-07T01:22:25;20.45;;;13.90;;
25846;SDS011;13676;50.168;8.568;2022-12-07T01:24:50;21.77;;;15.38;;
25846;SDS011;13676;50.168;8.568;2022-12-07T01:27:16;23.95;;;15.48;;
25846;SDS011;13676;50.168;8.568;2022-12-07T01:29:41;23.08;;;15.32;;
25846;SDS011;13676;50.168;8.568;2022-12-07T01:32:07;17.38;;;13.30;;
25846;SDS011;13676;50.168;8.568;2022-12-07T01:34:32;20.90;;;13.98;;
25846;SDS011;13676;50.168;8.568;2022-12-07T01:36:57;19.88;;;14.50;;
25846;SDS011;13676;50.168;8.568;2022-12-07T01:39:23;20.92;;;14.25;;
25846;SDS011;13676;50.168;8.568;2022-12-07T01:41:48;21.85;;;15.40;;
25846;SDS011;13676;50.168;8.568;2022-12-07T01:46:52;19.00;;;13.57;;
25846;SDS011;13676;50.168;8.568;2022-12-07T01:51:49;26.80;;;14.68;;
25846;SDS011;13676;50.168;8.568;2022-12-07T01:54:17;19.60;;;13.75;;
25846;SDS011;13676;50.168;8.568;2022-12-07T01:56:44;20.95;;;12.63;;
25846;SDS011;13676;50.168;8.568;2022-12-07T01:59:14;20.00;;;12.73;;
25846;SDS011;13676;50.168;8.568;2022-12-07T02:01:40;16.38;;;11.60;;
25846;SDS011;13676;50.168;8.568;2022-12-07T02:04:05;13.98;;;9.95;;
25846;SDS011;13676;50.168;8.568;2022-12-07T02:06:30;18.40;;;12.25;;
25846;SDS011;13676;50.168;8.568;2022-12-07T02:08:56;16.98;;;12.65;;
25846;SDS011;13676;50.168;8.568;2022-12-07T02:11:21;19.08;;;14.48;;
25846;SDS011;13676;50.168;8.568;2022-12-07T02:13:47;20.33;;;13.90;;
25846;SDS011;13676;50.168;8.568;2022-12-07T02:16:32;20.75;;;14.27;;
25846;SDS011;13676;50.168;8.568;2022-12-07T02:19:24;20.17;;;12.82;;
25846;SDS011;13676;50.168;8.568;2022-12-07T02:27:34;13.32;;;10.02;;
25846;SDS011;13676;50.168;8.568;2022-12-07T02:30:21;15.90;;;11.15;;
25846;SDS011;13676;50.168;8.568;2022-12-07T02:32:57;18.67;;;10.95;;
25846;SDS011;13676;50.168;8.568;2022-12-07T02:38:24;20.52;;;13.10;;
25846;SDS011;13676;50.168;8.568;2022-12-07T02:40:53;19.73;;;12.07;;
25846;SDS011;13676;50.168;8.568;2022-12-07T02:43:54;18.33;;;11.93;;
25846;SDS011;13676;50.168;8.568;2022-12-07T02:46:23;15.40;;;10.82;;
25846;SDS011;13676;50.168;8.568;2022-12-07T02:48:51;14.88;;;10.45;;
25846;SDS011;13676;50.168;8.568;2022-12-07T02:51:19;14.00;;;9.65;;
25846;SDS011;13676;50.168;8.568;2022-12-07T02:53:44;15.30;;;9.82;;
25846;SDS011;13676;50.168;8.568;2022-12-07T02:56:16;14.23;;;9.57;;
25846;SDS011;13676;50.168;8.568;2022-12-07T03:07:41;17.30;;;11.00;;
25846;SDS011;13676;50.168;8.568;2022-12-07T03:15:18;15.32;;;10.75;;
25846;SDS011;13676;50.168;8.568;2022-12-07T03:17:47;16.02;;;11.13;;
25846;SDS011;13676;50.168;8.568;2022-12-07T03:20:13;17.00;;;10.55;;
25846;SDS011;13676;50.168;8.568;2022-12-07T03:22:41;15.50;;;10.50;;
25846;SDS011;13676;50.168;8.568;2022-12-07T03:25:11;11.90;;;9.53;;
25846;SDS011;13676;50.168;8.568;2022-12-07T03:27:41;15.02;;;9.93;;
25846;SDS011;13676;50.168;8.568;2022-12-07T03:30:13;13.85;;;9.38;;
25846;SDS011;13676;50.168;8.568;2022-12-07T03:32:43;17.75;;;10.88;;
25846;SDS011;13676;50.168;8.568;2022-12-07T03:35:25;14.43;;;9.43;;
25846;SDS011;13676;50.168;8.568;2022-12-07T03:38:39;12.38;;;8.93;;
25846;SDS011;13676;50.168;8.568;2022-12-07T03:40:44;13.45;;;8.40;;
25846;SDS011;13676;50.168;8.568;2022-12-07T03:43:31;13.07;;;8.65;;
25846;SDS011;13676;50.168;8.568;2022-12-07T03:54:20;12.45;;;8.65;;
25846;SDS011;13676;50.168;8.568;2022-12-07T03:56:49;12.75;;;9.48;;
25846;SDS011;13676;50.168;8.568;2022-12-07T03:59:15;16.88;;;10.82;;
25846;SDS011;13676;50.168;8.568;2022-12-07T04:01:42;18.05;;;11.07;;
25846;SDS011;13676;50.168;8.568;2022-12-07T04:04:09;15.85;;;10.52;;
25846;SDS011;13676;50.168;8.568;2022-12-07T04:06:34;14.35;;;10.68;;
25846;SDS011;13676;50.168;8.568;2022-12-07T04:08:59;15.60;;;9.88;;
25846;SDS011;13676;50.168;8.568;2022-12-07T04:11:25;12.52;;;8.98;;
25846;SDS011;13676;50.168;8.568;2022-12-07T04:13:50;14.82;;;10.50;;
25846;SDS011;13676;50.168;8.568;2022-12-07T04:16:34;12.65;;;8.73;;
25846;SDS011;13676;50.168;8.568;2022-12-07T04:18:59;13.23;;;10.02;;
25846;SDS011;13676;50.168;8.568;2022-12-07T04:21:25;13.95;;;10.05;;
25846;SDS011;13676;50.168;8.568;2022-12-07T04:23:50;10.35;;;8.30;;
25846;SDS011;13676;50.168;8.568;2022-12-07T04:26:15;14.90;;;10.40;;
25846;SDS011;13676;50.168;8.568;2022-12-07T04:28:40;14.93;;;9.30;;
25846;SDS011;13676;50.168;8.568;2022-12-07T04:31:06;9.75;;;7.30;;
25846;SDS011;13676;50.168;8.568;2022-12-07T04:33:31;15.10;;;10.35;;
25846;SDS011;13676;50.168;8.568;2022-12-07T04:35:56;14.70;;;10.52;;
25846;SDS011;13676;50.168;8.568;2022-12-07T04:38:22;13.20;;;9.18;;
25846;SDS011;13676;50.168;8.568;2022-12-07T04:40:47;12.60;;;9.38;;
25846;SDS011;13676;50.168;8.568;2022-12-07T04:43:12;12.48;;;9.32;;
25846;SDS011;13676;50.168;8.568;2022-12-07T04:45:38;14.63;;;9.82;;
25846;SDS011;13676;50.168;8.568;2022-12-07T04:48:03;11.95;;;9.10;;
25846;SDS011;13676;50.168;8.568;2022-12-07T04:50:29;14.27;;;9.25;;
25846;SDS011;13676;50.168;8.568;2022-12-07T04:52:54;11.70;;;8.40;;
25846;SDS011;13676;50.168;8.568;2022-12-07T04:55:19;12.85;;;9.48;;
25846;SDS011;13676;50.168;8.568;2022-12-07T04:57:44;14.05;;;9.55;;
25846;SDS011;13676;50.168;8.568;2022-12-07T05:00:10;16.65;;;9.68;;
25846;SDS011;13676;50.168;8.568;2022-12-07T05:02:37;16.88;;;11.30;;
25846;SDS011;13676;50.168;8.568;2022-12-07T05:05:02;11.57;;;8.65;;
25846;SDS011;13676;50.168;8.568;2022-12-07T05:07:28;15.52;;;8.48;;
25846;SDS011;13676;50.168;8.568;2022-12-07T05:09:53;11.80;;;9.02;;
25846;SDS011;13676;50.168;8.568;2022-12-07T05:12:18;12.73;;;9.40;;
25846;SDS011;13676;50.168;8.568;2022-12-07T05:14:44;11.38;;;8.65;;
25846;SDS011;13676;50.168;8.568;2022-12-07T05:17:09;13.65;;;9.13;;
25846;SDS011;13676;50.168;8.568;2022-12-07T05:19:36;10.85;;;8.20;;
25846;SDS011;13676;50.168;8.568;2022-12-07T05:22:01;11.23;;;8.48;;
25846;SDS011;13676;50.168;8.568;2022-12-07T05:24:27;11.43;;;8.70;;
25846;SDS011;13676;50.168;8.568;2022-12-07T05:26:52;10.77;;;8.57;;
25846;SDS011;13676;50.168;8.568;2022-12-07T05:29:17;9.05;;;7.13;;
25846;SDS011;13676;50.168;8.568;2022-12-07T05:31:43;11.73;;;8.52;;
25846;SDS011;13676;50.168;8.568;2022-12-07T05:34:09;11.25;;;8.25;;
25846;SDS011;13676;50.168;8.568;2022-12-07T05:36:35;13.13;;;8.93;;
25846;SDS011;13676;50.168;8.568;2022-12-07T05:39:00;12.43;;;8.93;;
25846;SDS011;13676;50.168;8.568;2022-12-07T05:41:25;11.70;;;9.07;;
25846;SDS011;13676;50.168;8.568;2022-12-07T05:44:10;14.27;;;9.85;;
25846;SDS011;13676;50.168;8.568;2022-12-07T05:46:35;9.57;;;7.68;;
25846;SDS011;13676;50.168;8.568;2022-12-07T05:49:00;11.05;;;8.60;;
25846;SDS011;13676;50.168;8.568;2022-12-07T05:51:26;11.10;;;8.65;;
25846;SDS011;13676;50.168;8.568;2022-12-07T05:53:51;12.57;;;9.93;;
25846;SDS011;13676;50.168;8.568;2022-12-07T05:56:17;14.65;;;10.05;;
25846;SDS011;13676;50.168;8.568;2022-12-07T05:58:42;13.88;;;10.55;;
25846;SDS011;13676;50.168;8.568;2022-12-07T06:01:26;11.43;;;9.43;;
25846;SDS011;13676;50.168;8.568;2022-12-07T06:03:51;19.52;;;11.52;;
25846;SDS011;13676;50.168;8.568;2022-12-07T06:06:16;15.13;;;10.90;;
25846;SDS011;13676;50.168;8.568;2022-12-07T06:08:42;12.38;;;10.02;;
25846;SDS011;13676;50.168;8.568;2022-12-07T06:11:07;15.43;;;12.10;;
25846;SDS011;13676;50.168;8.568;2022-12-07T06:13:51;20.50;;;11.38;;
25846;SDS011;13676;50.168;8.568;2022-12-07T06:16:16;12.90;;;10.40;;
25846;SDS011;13676;50.168;8.568;2022-12-07T06:18:41;16.15;;;12.10;;
25846;SDS011;13676;50.168;8.568;2022-12-07T06:21:07;13.57;;;10.48;;
25846;SDS011;13676;50.168;8.568;2022-12-07T06:23:32;16.88;;;11.68;;
25846;SDS011;13676;50.168;8.568;2022-12-07T06:25:58;13.55;;;9.80;;
25846;SDS011;13676;50.168;8.568;2022-12-07T06:28:23;12.88;;;9.80;;
25846;SDS011;13676;50.168;8.568;2022-12-07T06:30:56;11.80;;;9.70;;
25846;SDS011;13676;50.168;8.568;2022-12-07T06:33:22;14.55;;;11.38;;
25846;SDS011;13676;50.168;8.568;2022-12-07T06:35:48;15.70;;;11.77;;
25846;SDS011;13676;50.168;8.568;2022-12-07T06:38:13;17.60;;;11.48;;
25846;SDS011;13676;50.168;8.568;2022-12-07T06:40:38;13.35;;;9.85;;
25846;SDS011;13676;50.168;8.568;2022-12-07T06:43:04;13.35;;;10.43;;
25846;SDS011;13676;50.168;8.568;2022-12-07T06:45:29;11.73;;;9.07;;
25846;SDS011;13676;50.168;8.568;2022-12-07T06:47:54;15.18;;;9.38;;
25846;SDS011;13676;50.168;8.568;2022-12-07T06:50:20;10.73;;;8.48;;
25846;SDS011;13676;50.168;8.568;2022-12-07T06:52:45;12.35;;;9.65;;
25846;SDS011;13676;50.168;8.568;2022-12-07T06:55:11;14.23;;;9.23;;
25846;SDS011;13676;50.168;8.568;2022-12-07T06:57:37;11.48;;;8.80;;
25846;SDS011;13676;50.168;8.568;2022-12-07T07:00:02;11.85;;;8.93;;
25846;SDS011;13676;50.168;8.568;2022-12-07T07:02:28;14.45;;;8.82;;
25846;SDS011;13676;50.168;8.568;2022-12-07T07:04:53;11.60;;;8.20;;
25846;SDS011;13676;50.168;8.568;2022-12-07T07:07:19;11.20;;;7.40;;
25846;SDS011;13676;50.168;8.568;2022-12-07T07:09:44;11.30;;;7.10;;
25846;SDS011;13676;50.168;8.568;2022-12-07T07:12:09;10.05;;;7.47;;
25846;SDS011;13676;50.168;8.568;2022-12-07T07:14:35;13.23;;;8.98;;
25846;SDS011;13676;50.168;8.568;2022-12-07T07:17:00;13.52;;;7.85;;
25846;SDS011;13676;50.168;8.568;2022-12-07T07:19:26;9.85;;;7.60;;
25846;SDS011;13676;50.168;8.568;2022-12-07T07:21:51;10.10;;;7.90;;
25846;SDS011;13676;50.168;8.568;2022-12-07T07:24:16;8.57;;;6.90;;
25846;SDS011;13676;50.168;8.568;2022-12-07T07:26:42;11.25;;;6.97;;
25846;SDS011;13676;50.168;8.568;2022-12-07T07:29:07;8.73;;;7.07;;
25846;SDS011;13676;50.168;8.568;2022-12-07T07:31:32;11.07;;;6.90;;
25846;SDS011;13676;50.168;8.568;2022-12-07T07:34:00;11.82;;;7.63;;
25846;SDS011;13676;50.168;8.568;2022-12-07T07:36:25;9.38;;;7.43;;
25846;SDS011;13676;50.168;8.568;2022-12-07T07:38:51;13.25;;;7.50;;
25846;SDS011;13676;50.168;8.568;2022-12-07T07:41:16;11.85;;;8.45;;
25846;SDS011;13676;50.168;8.568;2022-12-07T07:43:41;11.70;;;7.93;;
25846;SDS011;13676;50.168;8.568;2022-12-07T07:46:07;8.88;;;6.95;;
25846;SDS011;13676;50.168;8.568;2022-12-07T07:48:32;7.80;;;6.00;;
25846;SDS011;13676;50.168;8.568;2022-12-07T07:50:57;10.63;;;6.15;;
25846;SDS011;13676;50.168;8.568;2022-12-07T07:53:23;9.10;;;6.55;;
25846;SDS011;13676;50.168;8.568;2022-12-07T07:55:52;10.75;;;6.35;;
25846;SDS011;13676;50.168;8.568;2022-12-07T07:58:18;8.52;;;5.53;;
25846;SDS011;13676;50.168;8.568;2022-12-07T08:00:43;7.50;;;5.68;;
25846;SDS011;13676;50.168;8.568;2022-12-07T08:03:09;8.45;;;5.97;;
25846;SDS011;13676;50.168;8.568;2022-12-07T08:05:35;7.45;;;5.35;;
25846;SDS011;13676;50.168;8.568;2022-12-07T08:08:02;6.80;;;5.20;;
25846;SDS011;13676;50.168;8.568;2022-12-07T08:10:27;6.03;;;4.57;;
25846;SDS011;13676;50.168;8.568;2022-12-07T08:12:52;7.13;;;5.13;;
25846;SDS011;13676;50.168;8.568;2022-12-07T08:15:36;8.50;;;4.40;;
25846;SDS011;13676;50.168;8.568;2022-12-07T08:18:03;7.18;;;4.40;;
25846;SDS011;13676;50.168;8.568;2022-12-07T08:20:29;5.03;;;3.92;;
25846;SDS011;13676;50.168;8.568;2022-12-07T08:22:55;6.20;;;4.35;;
25846;SDS011;13676;50.168;8.568;2022-12-07T08:25:21;5.10;;;3.63;;
25846;SDS011;13676;50.168;8.568;2022-12-07T08:27:49;5.90;;;4.20;;
25846;SDS011;13676;50.168;8.568;2022-12-07T08:30:15;7.88;;;4.10;;
25846;SDS011;13676;50.168;8.568;2022-12-07T08:32:40;7.00;;;4.18;;
25846;SDS011;13676;50.168;8.568;2022-12-07T08:35:06;7.45;;;4.07;;
25846;SDS011;13676;50.168;8.568;2022-12-07T08:37:32;5.07;;;3.90;;
25846;SDS011;13676;50.168;8.568;2022-12-07T08:39:58;8.45;;;4.38;;
25846;SDS011;13676;50.168;8.568;2022-12-07T08:42:23;5.85;;;4.10;;
25846;SDS011;13676;50.168;8.568;2022-12-07T08:44:52;5.55;;;4.28;;
25846;SDS011;13676;50.168;8.568;2022-12-07T08:47:18;8.35;;;5.45;;
25846;SDS011;13676;50.168;8.568;2022-12-07T08:49:44;10.23;;;6.40;;
25846;SDS011;13676;50.168;8.568;2022-12-07T08:52:13;10.60;;;6.03;;
25846;SDS011;13676;50.168;8.568;2022-12-07T08:54:38;10.38;;;7.80;;
25846;SDS011;13676;50.168;8.568;2022-12-07T08:57:05;12.18;;;8.52;;
25846;SDS011;13676;50.168;8.568;2022-12-07T08:59:31;13.13;;;9.55;;
25846;SDS011;13676;50.168;8.568;2022-12-07T09:01:58;13.82;;;9.32;;
25846;SDS011;13676;50.168;8.568;2022-12-07T09:04:23;11.65;;;8.65;;
25846;SDS011;13676;50.168;8.568;2022-12-07T09:06:49;11.70;;;8.52;;
25846;SDS011;13676;50.168;8.568;2022-12-07T09:09:14;10.13;;;8.05;;
25846;SDS011;13676;50.168;8.568;2022-12-07T09:11:40;13.15;;;9.15;;
25846;SDS011;13676;50.168;8.568;2022-12-07T09:14:06;11.18;;;8.07;;
25846;SDS011;13676;50.168;8.568;2022-12-07T09:16:31;11.15;;;8.13;;
25846;SDS011;13676;50.168;8.568;2022-12-07T09:18:56;13.30;;;8.85;;
25846;SDS011;13676;50.168;8.568;2022-12-07T09:21:22;12.45;;;8.20;;
25846;SDS011;13676;50.168;8.568;2022-12-07T09:23:47;12.70;;;8.98;;
25846;SDS011;13676;50.168;8.568;2022-12-07T09:26:12;9.65;;;6.25;;
25846;SDS011;13676;50.168;8.568;2022-12-07T09:28:38;9.55;;;5.15;;
25846;SDS011;13676;50.168;8.568;2022-12-07T09:31:04;11.73;;;5.68;;
25846;SDS011;13676;50.168;8.568;2022-12-07T09:33:29;10.25;;;5.70;;
25846;SDS011;13676;50.168;8.568;2022-12-07T09:35:55;7.00;;;4.82;;
25846;SDS011;13676;50.168;8.568;2022-12-07T09:38:20;8.80;;;4.78;;
25846;SDS011;13676;50.168;8.568;2022-12-07T09:40:46;7.22;;;4.28;;
25846;SDS011;13676;50.168;8.568;2022-12-07T09:43:13;8.32;;;5.28;;
25846;SDS011;13676;50.168;8.568;2022-12-07T09:45:43;9.65;;;5.40;;
25846;SDS011;13676;50.168;8.568;2022-12-07T09:48:14;8.07;;;5.85;;
25846;SDS011;13676;50.168;8.568;2022-12-07T09:50:42;6.30;;;4.28;;
25846;SDS011;13676;50.168;8.568;2022-12-07T09:53:09;6.70;;;4.40;;
25846;SDS011;13676;50.168;8.568;2022-12-07T09:55:40;7.88;;;4.45;;
25846;SDS011;13676;50.168;8.568;2022-12-07T09:58:06;5.65;;;4.05;;
25846;SDS011;13676;50.168;8.568;2022-12-07T10:00:31;6.68;;;3.67;;
25846;SDS011;13676;50.168;8.568;2022-12-07T10:02:57;9.50;;;4.05;;
25846;SDS011;13676;50.168;8.568;2022-12-07T10:05:27;4.88;;;3.53;;
25846;SDS011;13676;50.168;8.568;2022-12-07T10:07:55;14.43;;;3.90;;
25846;SDS011;13676;50.168;8.568;2022-12-07T10:10:24;7.97;;;4.05;;
25846;SDS011;13676;50.168;8.568;2022-12-07T10:23:40;6.63;;;3.60;;
25846;SDS011;13676;50.168;8.568;2022-12-07T10:28:52;7.45;;;4.00;;
25846;SDS011;13676;50.168;8.568;2022-12-07T10:31:18;5.85;;;3.20;;
25846;SDS011;13676;50.168;8.568;2022-12-07T10:33:49;5.68;;;2.85;;
25846;SDS011;13676;50.168;8.568;2022-12-07T10:36:18;7.57;;;2.95;;
25846;SDS011;13676;50.168;8.568;2022-12-07T10:39:13;6.30;;;3.22;;
25846;SDS011;13676;50.168;8.568;2022-12-07T10:41:56;7.85;;;3.05;;
25846;SDS011;13676;50.168;8.568;2022-12-07T10:44:27;4.30;;;2.85;;
25846;SDS011;13676;50.168;8.568;2022-12-07T10:57:44;8.60;;;3.17;;
25846;SDS011;13676;50.168;8.568;2022-12-07T11:00:21;6.95;;;3.00;;
25846;SDS011;13676;50.168;8.568;2022-12-07T11:03:04;5.88;;;3.20;;
25846;SDS011;13676;50.168;8.568;2022-12-07T11:06:26;8.13;;;3.30;;
25846;SDS011;13676;50.168;8.568;2022-12-07T11:08:44;8.68;;;3.65;;
25846;SDS011;13676;50.168;8.568;2022-12-07T11:11:19;12.73;;;3.55;;
25846;SDS011;13676;50.168;8.568;2022-12-07T11:14:16;11.23;;;3.95;;
25846;SDS011;13676;50.168;8.568;2022-12-07T11:22:43;7.73;;;3.83;;
25846;SDS011;13676;50.168;8.568;2022-12-07T11:25:18;10.13;;;3.53;;
25846;SDS011;13676;50.168;8.568;2022-12-07T11:30:31;12.13;;;4.05;;
25846;SDS011;13676;50.168;8.568;2022-12-07T11:33:11;11.90;;;4.28;;
25846;SDS011;13676;50.168;8.568;2022-12-07T11:38:54;8.77;;;3.35;;
25846;SDS011;13676;50.168;8.568;2022-12-07T11:41:32;5.68;;;3.67;;
25846;SDS011;13676;50.168;8.568;2022-12-07T11:50:32;5.13;;;2.80;;
25846;SDS011;13676;50.168;8.568;2022-12-07T11:58:28;6.07;;;2.60;;
25846;SDS011;13676;50.168;8.568;2022-12-07T12:06:43;4.88;;;2.30;;
25846;SDS011;13676;50.168;8.568;2022-12-07T12:22:27;4.57;;;2.13;;
25846;SDS011;13676;50.168;8.568;2022-12-07T12:24:59;6.30;;;1.85;;
25846;SDS011;13676;50.168;8.568;2022-12-07T12:27:30;4.45;;;1.83;;
25846;SDS011;13676;50.168;8.568;2022-12-07T12:30:00;3.90;;;1.92;;
25846;SDS011;13676;50.168;8.568;2022-12-07T12:32:49;6.10;;;1.92;;
25846;SDS011;13676;50.168;8.568;2022-12-07T12:38:25;3.95;;;1.70;;
25846;SDS011;13676;50.168;8.568;2022-12-07T12:40:52;6.60;;;1.75;;
25846;SDS011;13676;50.168;8.568;2022-12-07T12:51:39;6.20;;;2.45;;
25846;SDS011;13676;50.168;8.568;2022-12-07T12:54:11;6.70;;;2.22;;
25846;SDS011;13676;50.168;8.568;2022-12-07T12:59:18;6.72;;;2.15;;
25846;SDS011;13676;50.168;8.568;2022-12-07T13:01:47;3.53;;;2.00;;
25846;SDS011;13676;50.168;8.568;2022-12-07T13:04:24;5.15;;;2.13;;
25846;SDS011;13676;50.168;8.568;2022-12-07T13:06:52;3.53;;;1.98;;
25846;SDS011;13676;50.168;8.568;2022-12-07T13:09:36;4.60;;;2.10;;
25846;SDS011;13676;50.168;8.568;2022-12-07T13:12:02;3.90;;;1.83;;
25846;SDS011;13676;50.168;8.568;2022-12-07T13:17:07;5.72;;;2.22;;
25846;SDS011;13676;50.168;8.568;2022-12-07T13:22:27;8.82;;;2.05;;
25846;SDS011;13676;50.168;8.568;2022-12-07T13:25:17;6.88;;;1.73;;
25846;SDS011;13676;50.168;8.568;2022-12-07T13:28:04;3.08;;;1.73;;
25846;SDS011;13676;50.168;8.568;2022-12-07T13:30:40;2.45;;;1.45;;
25846;SDS011;13676;50.168;8.568;2022-12-07T13:33:17;5.70;;;1.30;;
25846;SDS011;13676;50.168;8.568;2022-12-07T13:35:43;2.15;;;1.25;;
25846;SDS011;13676;50.168;8.568;2022-12-07T13:38:16;3.25;;;1.88;;
25846;SDS011;13676;50.168;8.568;2022-12-07T13:43:42;3.00;;;1.50;;
25846;SDS011;13676;50.168;8.568;2022-12-07T13:49:26;2.83;;;1.60;;
25846;SDS011;13676;50.168;8.568;2022-12-07T13:52:08;4.18;;;1.70;;
25846;SDS011;13676;50.168;8.568;2022-12-07T13:54:46;2.88;;;1.30;;
25846;SDS011;13676;50.168;8.568;2022-12-07T13:57:33;3.97;;;1.88;;
25846;SDS011;13676;50.168;8.568;2022-12-07T14:02:26;2.45;;;1.40;;
25846;SDS011;13676;50.168;8.568;2022-12-07T14:05:15;3.53;;;1.60;;
25846;SDS011;13676;50.168;8.568;2022-12-07T14:10:34;2.92;;;1.65;;
25846;SDS011;13676;50.168;8.568;2022-12-07T14:13:03;3.35;;;1.45;;
25846;SDS011;13676;50.168;8.568;2022-12-07T14:15:49;4.20;;;1.58;;
25846;SDS011;13676;50.168;8.568;2022-12-07T14:18:25;3.53;;;1.75;;
25846;SDS011;13676;50.168;8.568;2022-12-07T14:21:02;4.05;;;1.80;;
25846;SDS011;13676;50.168;8.568;2022-12-07T14:23:39;6.63;;;1.70;;
25846;SDS011;13676;50.168;8.568;2022-12-07T14:26:14;5.43;;;1.80;;
25846;SDS011;13676;50.168;8.568;2022-12-07T14:28:44;4.38;;;1.60;;
25846;SDS011;13676;50.168;8.568;2022-12-07T14:31:14;3.40;;;1.85;;
25846;SDS011;13676;50.168;8.568;2022-12-07T14:33:41;5.07;;;1.63;;
25846;SDS011;13676;50.168;8.568;2022-12-07T14:36:11;2.45;;;1.20;;
25846;SDS011;13676;50.168;8.568;2022-12-07T14:38:37;1.90;;;1.17;;
25846;SDS011;13676;50.168;8.568;2022-12-07T14:41:03;1.88;;;1.00;;
25846;SDS011;13676;50.168;8.568;2022-12-07T14:43:48;3.55;;;1.20;;
25846;SDS011;13676;50.168;8.568;2022-12-07T14:46:14;2.25;;;1.05;;
25846;SDS011;13676;50.168;8.568;2022-12-07T14:48:39;1.50;;;1.20;;
25846;SDS011;13676;50.168;8.568;2022-12-07T14:51:04;2.40;;;1.00;;
25846;SDS011;13676;50.168;8.568;2022-12-07T14:53:31;2.25;;;1.00;;
25846;SDS011;13676;50.168;8.568;2022-12-07T14:55:59;6.32;;;1.30;;
25846;SDS011;13676;50.168;8.568;2022-12-07T14:58:24;3.58;;;1.30;;
25846;SDS011;13676;50.168;8.568;2022-12-07T15:00:49;2.50;;;1.40;;
25846;SDS011;13676;50.168;8.568;2022-12-07T15:03:15;3.38;;;1.65;;
25846;SDS011;13676;50.168;8.568;2022-12-07T15:05:40;3.95;;;1.95;;
25846;SDS011;13676;50.168;8.568;2022-12-07T15:08:06;9.05;;;2.30;;
25846;SDS011;13676;50.168;8.568;2022-12-07T15:10:32;7.57;;;2.08;;
25846;SDS011;13676;50.168;8.568;2022-12-07T15:12:59;6.43;;;2.30;;
25846;SDS011;13676;50.168;8.568;2022-12-07T15:15:45;5.37;;;2.23;;
25846;SDS011;13676;50.168;8.568;2022-12-07T15:18:15;5.05;;;1.80;;
25846;SDS011;13676;50.168;8.568;2022-12-07T15:20:41;3.80;;;1.70;;
25846;SDS011;13676;50.168;8.568;2022-12-07T15:23:06;4.53;;;1.50;;
25846;SDS011;13676;50.168;8.568;2022-12-07T15:25:31;3.90;;;1.80;;
25846;SDS011;13676;50.168;8.568;2022-12-07T15:27:57;6.47;;;1.65;;
25846;SDS011;13676;50.168;8.568;2022-12-07T15:30:22;3.28;;;1.83;;
25846;SDS011;13676;50.168;8.568;2022-12-07T15:32:51;5.90;;;1.85;;
25846;SDS011;13676;50.168;8.568;2022-12-07T15:35:17;5.35;;;2.35;;
25846;SDS011;13676;50.168;8.568;2022-12-07T15:37:42;3.42;;;1.73;;
25846;SDS011;13676;50.168;8.568;2022-12-07T15:40:08;4.57;;;1.75;;
25846;SDS011;13676;50.168;8.568;2022-12-07T15:42:34;3.35;;;1.88;;
25846;SDS011;13676;50.168;8.568;2022-12-07T15:45:00;3.35;;;2.05;;
25846;SDS011;13676;50.168;8.568;2022-12-07T15:47:29;4.20;;;2.10;;
25846;SDS011;13676;50.168;8.568;2022-12-07T15:49:59;4.95;;;2.00;;
25846;SDS011;13676;50.168;8.568;2022-12-07T15:52:25;4.70;;;2.25;;
25846;SDS011;13676;50.168;8.568;2022-12-07T15:54:50;5.72;;;2.40;;
25846;SDS011;13676;50.168;8.568;2022-12-07T15:57:16;3.60;;;2.10;;
25846;SDS011;13676;50.168;8.568;2022-12-07T15:59:41;3.38;;;1.90;;
25846;SDS011;13676;50.168;8.568;2022-12-07T16:02:07;3.92;;;1.90;;
25846;SDS011;13676;50.168;8.568;2022-12-07T16:04:35;5.53;;;2.20;;
25846;SDS011;13676;50.168;8.568;2022-12-07T16:07:00;4.03;;;2.10;;
25846;SDS011;13676;50.168;8.568;2022-12-07T16:09:25;4.63;;;2.20;;
25846;SDS011;13676;50.168;8.568;2022-12-07T16:11:51;4.05;;;2.30;;
25846;SDS011;13676;50.168;8.568;2022-12-07T16:14:17;5.65;;;2.40;;
25846;SDS011;13676;50.168;8.568;2022-12-07T16:16:42;5.45;;;2.03;;
25846;SDS011;13676;50.168;8.568;2022-12-07T16:19:08;3.17;;;1.92;;
25846;SDS011;13676;50.168;8.568;2022-12-07T16:21:34;4.22;;;2.00;;
25846;SDS011;13676;50.168;8.568;2022-12-07T16:24:00;2.58;;;1.67;;
25846;SDS011;13676;50.168;8.568;2022-12-07T16:26:26;3.63;;;2.08;;
25846;SDS011;13676;50.168;8.568;2022-12-07T16:28:52;6.97;;;2.33;;
25846;SDS011;13676;50.168;8.568;2022-12-07T16:31:19;5.43;;;2.37;;
25846;SDS011;13676;50.168;8.568;2022-12-07T16:36:12;3.95;;;2.25;;
25846;SDS011;13676;50.168;8.568;2022-12-07T16:38:39;5.65;;;1.90;;
25846;SDS011;13676;50.168;8.568;2022-12-07T16:41:05;2.97;;;1.50;;
25846;SDS011;13676;50.168;8.568;2022-12-07T16:43:31;7.90;;;2.20;;
25846;SDS011;13676;50.168;8.568;2022-12-07T16:45:56;5.45;;;2.17;;
25846;SDS011;13676;50.168;8.568;2022-12-07T16:48:22;6.20;;;1.92;;
25846;SDS011;13676;50.168;8.568;2022-12-07T16:50:47;4.20;;;2.25;;
25846;SDS011;13676;50.168;8.568;2022-12-07T16:53:13;4.28;;;2.63;;
25846;SDS011;13676;50.168;8.568;2022-12-07T16:55:40;3.85;;;2.80;;
25846;SDS011;13676;50.168;8.568;2022-12-07T16:58:07;7.25;;;2.88;;
25846;SDS011;13676;50.168;8.568;2022-12-07T17:00:32;6.32;;;3.20;;
25846;SDS011;13676;50.168;8.568;2022-12-07T17:02:58;4.90;;;2.67;;
25846;SDS011;13676;50.168;8.568;2022-12-07T17:05:24;4.97;;;3.08;;